Time,TemperatureF,DewpointF,PressureIn,WindDirection,WindDirectionDegrees,WindSpeedMPH,WindSpeedGustMPH,Humidity,HourlyPrecipIn,Conditions,Clouds,dailyrainin,SoftwareType,DateUTC
2013-10-09 00:09:00,75.6,72.1,29.86,NE,53,5.0,7.0,89,0.00,,,0.00,Wunderground v.1.12,2013-10-09 04:09:00,
2013-10-09 00:19:00,75.6,72.1,29.86,North,11,6.0,9.0,89,0.00,,,0.00,Wunderground v.1.12,2013-10-09 04:19:00,
2013-10-09 00:29:00,75.6,72.1,29.86,NNE,23,6.0,16.0,89,0.01,,,0.00,Wunderground v.1.12,2013-10-09 04:29:00,
2013-10-09 00:39:00,75.6,72.1,29.86,NNE,18,7.0,14.0,89,0.00,,,0.00,Wunderground v.1.12,2013-10-09 04:39:00,
2013-10-09 00:49:00,75.5,72.0,29.85,NNW,337,4.0,4.0,89,0.00,,,0.00,Wunderground v.1.12,2013-10-09 04:49:00,
2013-10-09 00:59:00,75.5,72.4,29.85,NE,45,4.0,13.0,90,0.00,,,0.00,Wunderground v.1.12,2013-10-09 04:59:00,
2013-10-09 01:09:00,75.5,72.0,29.86,NNW,330,4.0,7.0,89,0.00,,,0.00,Wunderground v.1.12,2013-10-09 05:09:00,
2013-10-09 01:19:00,75.6,72.1,29.85,North,351,5.0,6.0,89,0.00,,,0.00,Wunderground v.1.12,2013-10-09 05:19:00,
2013-10-09 01:29:00,75.6,72.1,29.85,NNE,23,4.0,13.0,89,0.00,,,0.00,Wunderground v.1.12,2013-10-09 05:29:00,
2013-10-09 01:39:00,75.5,72.0,29.86,NNE,17,4.0,6.0,89,0.00,,,0.00,Wunderground v.1.12,2013-10-09 05:39:00,
2013-10-09 01:49:00,75.5,72.0,29.85,NE,51,6.0,6.0,89,0.00,,,0.00,Wunderground v.1.12,2013-10-09 05:49:00,
2013-10-09 01:59:00,75.4,71.9,29.85,NNE,23,5.0,16.0,89,0.00,,,0.00,Wunderground v.1.12,2013-10-09 05:59:00,
2013-10-09 02:09:00,75.4,71.9,29.85,NNE,31,4.0,9.0,89,0.00,,,0.00,Wunderground v.1.12,2013-10-09 06:09:00,
2013-10-09 02:19:00,75.3,71.8,29.85,NW,310,5.0,6.0,89,0.00,,,0.00,Wunderground v.1.12,2013-10-09 06:19:00,
2013-10-09 02:29:00,75.3,71.8,29.85,NNE,30,4.0,4.0,89,0.00,,,0.00,Wunderground v.1.12,2013-10-09 06:29:00,
2013-10-09 02:39:00,75.3,71.8,29.85,North,360,1.0,2.0,89,0.00,,,0.00,Wunderground v.1.12,2013-10-09 06:39:00,
2013-10-09 02:49:00,75.3,71.8,29.85,North,0,2.0,14.0,89,0.00,,,0.00,Wunderground v.1.12,2013-10-09 06:49:00,
2013-10-09 02:59:00,75.3,71.5,29.84,NNW,329,3.0,3.0,88,0.00,,,0.00,Wunderground v.1.12,2013-10-09 06:59:00,
2013-10-09 03:00:00,75.3,71.5,29.84,NNE,23,2.0,14.0,88,0.00,,,0.00,Wunderground v.1.12,2013-10-09 07:00:00,
2013-10-09 03:09:00,75.3,71.5,29.84,NNE,19,4.0,7.0,88,0.00,,,0.00,Wunderground v.1.12,2013-10-09 07:09:00,
2013-10-09 03:19:00,75.3,71.5,29.84,North,360,4.0,4.0,88,0.00,,,0.00,Wunderground v.1.12,2013-10-09 07:19:00,
2013-10-09 03:29:00,75.4,71.6,29.84,North,5,5.0,5.0,88,0.00,,,0.00,Wunderground v.1.12,2013-10-09 07:29:00,
2013-10-09 03:39:00,75.3,71.5,29.84,NNW,338,4.0,4.0,88,0.00,,,0.00,Wunderground v.1.12,2013-10-09 07:39:00,
2013-10-09 03:49:00,75.3,71.5,29.84,NNE,23,4.0,16.0,88,0.00,,,0.00,Wunderground v.1.12,2013-10-09 07:49:00,
2013-10-09 03:59:00,75.1,71.3,29.84,North,9,5.0,5.0,88,0.00,,,0.00,Wunderground v.1.12,2013-10-09 07:59:00,
2013-10-09 04:00:00,75.1,71.3,29.84,NNE,23,5.0,14.0,88,0.00,,,0.00,Wunderground v.1.12,2013-10-09 08:00:00,
2013-10-09 04:09:00,75.1,71.3,29.84,North,351,4.0,4.0,88,0.00,,,0.00,Wunderground v.1.12,2013-10-09 08:09:00,
2013-10-09 04:19:00,75.1,71.3,29.84,NE,44,5.0,5.0,88,0.00,,,0.00,Wunderground v.1.12,2013-10-09 08:19:00,
2013-10-09 04:29:00,75.1,71.3,29.84,NE,51,6.0,6.0,88,0.00,,,0.00,Wunderground v.1.12,2013-10-09 08:29:00,
2013-10-09 04:39:00,75.1,71.6,29.83,NNE,23,5.0,13.0,89,0.00,,,0.00,Wunderground v.1.12,2013-10-09 08:39:00,
2013-10-09 04:49:00,74.7,71.2,29.84,North,360,4.0,7.0,89,0.00,,,0.00,Wunderground v.1.12,2013-10-09 08:49:00,
2013-10-09 04:59:00,74.6,71.1,29.84,NNE,15,4.0,4.0,89,0.00,,,0.00,Wunderground v.1.12,2013-10-09 08:59:00,
2013-10-09 05:09:00,74.7,71.2,29.84,NNW,338,3.0,12.0,89,0.00,,,0.00,Wunderground v.1.12,2013-10-09 09:09:00,
2013-10-09 05:19:00,74.8,71.3,29.84,NE,47,4.0,12.0,89,0.00,,,0.00,Wunderground v.1.12,2013-10-09 09:19:00,
2013-10-09 05:29:00,74.9,71.1,29.84,NE,54,6.0,14.0,88,0.00,,,0.00,Wunderground v.1.12,2013-10-09 09:29:00,
2013-10-09 05:30:00,74.9,71.1,29.85,NNE,23,6.0,17.0,88,0.00,,,0.00,Wunderground v.1.12,2013-10-09 09:30:00,
2013-10-09 05:39:00,75.0,71.2,29.85,NNE,15,4.0,9.0,88,0.00,,,0.00,Wunderground v.1.12,2013-10-09 09:39:00,
2013-10-09 05:49:00,75.0,70.9,29.86,NE,36,7.0,7.0,87,0.00,,,0.00,Wunderground v.1.12,2013-10-09 09:49:00,
2013-10-09 05:59:00,75.0,71.2,29.86,NNE,23,4.0,6.0,88,0.00,,,0.00,Wunderground v.1.12,2013-10-09 09:59:00,
2013-10-09 06:09:00,75.0,71.2,29.86,NE,45,5.0,14.0,88,0.00,,,0.00,Wunderground v.1.12,2013-10-09 10:09:00,
2013-10-09 06:19:00,74.8,71.0,29.87,NNW,336,4.0,4.0,88,0.00,,,0.00,Wunderground v.1.12,2013-10-09 10:19:00,
2013-10-09 06:20:00,74.8,71.0,29.87,North,0,4.0,17.0,88,0.00,,,0.00,Wunderground v.1.12,2013-10-09 10:20:00,
2013-10-09 06:29:00,74.7,70.9,29.87,NNE,24,5.0,6.0,88,0.00,,,0.00,Wunderground v.1.12,2013-10-09 10:29:00,
2013-10-09 06:39:00,74.6,70.5,29.87,NNE,32,5.0,5.0,87,0.00,,,0.00,Wunderground v.1.12,2013-10-09 10:39:00,
2013-10-09 06:49:00,74.4,70.3,29.88,NE,49,3.0,3.0,87,0.00,,,0.00,Wunderground v.1.12,2013-10-09 10:49:00,
2013-10-09 06:59:00,74.5,70.4,29.88,NNE,23,4.0,14.0,87,0.00,,,0.00,Wunderground v.1.12,2013-10-09 10:59:00,
2013-10-09 07:09:00,74.3,70.2,29.88,NNW,340,4.0,4.0,87,0.00,,,0.00,Wunderground v.1.12,2013-10-09 11:09:00,
2013-10-09 07:19:00,74.5,70.4,29.89,NE,34,5.0,5.0,87,0.00,,,0.00,Wunderground v.1.12,2013-10-09 11:19:00,
2013-10-09 07:29:00,74.5,70.4,29.89,North,5,5.0,5.0,87,0.00,,,0.00,Wunderground v.1.12,2013-10-09 11:29:00,
2013-10-09 07:39:00,74.5,70.4,29.89,NNW,345,4.0,4.0,87,0.00,,,0.00,Wunderground v.1.12,2013-10-09 11:39:00,
2013-10-09 07:40:00,74.5,70.4,29.89,NNE,23,4.0,13.0,87,0.00,,,0.00,Wunderground v.1.12,2013-10-09 11:40:00,
2013-10-09 07:49:00,74.6,70.5,29.88,ENE,71,4.0,4.0,87,0.00,,,0.00,Wunderground v.1.12,2013-10-09 11:49:00,
2013-10-09 07:59:00,74.7,70.9,29.88,NNE,16,5.0,8.0,88,0.00,,,0.00,Wunderground v.1.12,2013-10-09 11:59:00,
2013-10-09 08:09:00,74.4,70.6,29.89,NNW,345,5.0,7.0,88,0.00,,,0.00,Wunderground v.1.12,2013-10-09 12:09:00,
2013-10-09 08:19:00,74.4,70.6,29.90,NNE,12,4.0,4.0,88,0.00,,,0.00,Wunderground v.1.12,2013-10-09 12:19:00,
2013-10-09 08:29:00,74.4,70.3,29.90,NE,45,4.0,16.0,87,0.00,,,0.00,Wunderground v.1.12,2013-10-09 12:29:00,
2013-10-09 08:39:00,74.9,70.8,29.90,NE,56,5.0,9.0,87,0.00,,,0.00,Wunderground v.1.12,2013-10-09 12:39:00,
2013-10-09 08:49:00,74.9,70.8,29.90,NNE,23,5.0,14.0,87,0.00,,,0.00,Wunderground v.1.12,2013-10-09 12:49:00,
2013-10-09 08:59:00,75.2,70.4,29.91,NE,52,4.0,5.0,85,0.00,,,0.00,Wunderground v.1.12,2013-10-09 12:59:00,
2013-10-09 09:00:00,75.2,70.4,29.91,NNE,23,5.0,14.0,85,0.00,,,0.00,Wunderground v.1.12,2013-10-09 13:00:00,
2013-10-09 09:09:00,75.5,70.7,29.91,ENE,69,5.0,5.0,85,0.00,,,0.00,Wunderground v.1.12,2013-10-09 13:09:00,
2013-10-09 09:19:00,75.8,70.6,29.92,NNE,28,3.0,3.0,84,0.00,,,0.00,Wunderground v.1.12,2013-10-09 13:19:00,
2013-10-09 09:29:00,76.2,71.0,29.92,NNW,346,3.0,3.0,84,0.00,,,0.00,Wunderground v.1.12,2013-10-09 13:29:00,
2013-10-09 09:39:00,76.2,71.0,29.93,NNW,338,3.0,13.0,84,0.00,,,0.00,Wunderground v.1.12,2013-10-09 13:39:00,
2013-10-09 09:49:00,76.4,70.9,29.93,NNE,30,5.0,5.0,83,0.00,,,0.00,Wunderground v.1.12,2013-10-09 13:49:00,
2013-10-09 09:59:00,76.2,71.0,29.93,North,9,1.0,1.0,84,0.00,,,0.00,Wunderground v.1.12,2013-10-09 13:59:00,
2013-10-09 10:09:00,75.7,70.5,29.93,NW,325,3.0,3.0,84,0.00,,,0.00,Wunderground v.1.12,2013-10-09 14:09:00,
2013-10-09 10:19:00,75.3,70.5,29.94,North,355,3.0,3.0,85,0.00,,,0.00,Wunderground v.1.12,2013-10-09 14:19:00,
2013-10-09 10:29:00,75.5,70.7,29.94,NNW,338,3.0,13.0,85,0.00,,,0.00,Wunderground v.1.12,2013-10-09 14:29:00,
2013-10-09 10:39:00,75.1,70.6,29.94,NNW,340,2.0,2.0,86,0.00,,,0.00,Wunderground v.1.12,2013-10-09 14:39:00,
2013-10-09 10:49:00,75.6,70.8,29.94,North,9,3.0,7.0,85,0.00,,,0.00,Wunderground v.1.12,2013-10-09 14:49:00,
2013-10-09 10:59:00,75.7,70.9,29.94,NNE,23,3.0,13.0,85,0.00,,,0.00,Wunderground v.1.12,2013-10-09 14:59:00,
2013-10-09 11:09:00,76.4,70.9,29.95,NNW,346,5.0,5.0,83,0.00,,,0.00,Wunderground v.1.12,2013-10-09 15:09:00,
2013-10-09 15:09:00,74.8,68.9,29.92,NNW,347,4.0,4.0,82,0.00,,,0.00,Wunderground v.1.12,2013-10-09 19:09:00,
2013-10-09 16:09:00,74.6,68.7,29.91,NNW,347,3.0,3.0,82,0.00,,,0.00,Wunderground v.1.12,2013-10-09 20:09:00,
2013-10-09 16:19:00,74.3,68.4,29.91,North,355,4.0,4.0,82,0.00,,,0.00,Wunderground v.1.12,2013-10-09 20:19:00,
2013-10-09 16:39:00,74.8,68.9,29.92,North,0,3.0,14.0,82,0.00,,,0.00,Wunderground v.1.12,2013-10-09 20:39:00,
2013-10-09 16:49:00,74.4,68.5,29.91,NNW,329,3.0,10.0,82,0.00,,,0.00,Wunderground v.1.12,2013-10-09 20:49:00,
2013-10-09 17:00:00,74.6,68.7,29.92,North,0,5.0,14.0,82,0.00,,,0.00,Wunderground v.1.12,2013-10-09 21:00:00,
2013-10-09 17:19:00,74.7,68.8,29.91,NE,38,4.0,7.0,82,0.00,,,0.00,Wunderground v.1.12,2013-10-09 21:19:00,
2013-10-09 17:40:00,73.3,67.8,29.92,North,0,4.0,16.0,83,0.00,,,0.00,Wunderground v.1.12,2013-10-09 21:40:00,
2013-10-09 17:59:00,72.4,67.6,29.93,NNW,346,3.0,3.0,85,0.00,,,0.00,Wunderground v.1.12,2013-10-09 21:59:00,
2013-10-09 18:09:00,72.2,67.4,29.93,NNW,338,3.0,3.0,85,0.00,,,0.00,Wunderground v.1.12,2013-10-09 22:09:00,
2013-10-09 18:19:00,72.2,67.8,29.93,North,5,1.0,1.0,86,0.00,,,0.00,Wunderground v.1.12,2013-10-09 22:19:00,
2013-10-09 18:28:00,72.2,67.8,29.93,North,0,1.0,11.0,86,0.00,,,0.00,Wunderground v.1.12,2013-10-09 22:28:00,
2013-10-09 18:38:00,72.0,67.6,29.93,NNE,23,2.0,7.0,86,0.00,,,0.00,Wunderground v.1.12,2013-10-09 22:38:00,
2013-10-09 18:48:00,71.6,67.2,29.93,NNE,13,1.0,2.0,86,0.00,,,0.00,Wunderground v.1.12,2013-10-09 22:48:00,
2013-10-09 18:58:00,71.5,67.1,29.93,NNE,23,1.0,6.0,86,0.00,,,0.00,Wunderground v.1.12,2013-10-09 22:58:00,
2013-10-09 19:08:00,71.3,67.2,29.94,North,9,1.0,1.0,87,0.00,,,0.00,Wunderground v.1.12,2013-10-09 23:08:00,
2013-10-09 19:18:00,71.2,67.1,29.94,NE,40,1.0,1.0,87,0.00,,,0.00,Wunderground v.1.12,2013-10-09 23:18:00,
2013-10-09 19:20:00,71.1,67.0,29.94,NE,45,1.0,7.0,87,0.00,,,0.00,Wunderground v.1.12,2013-10-09 23:20:00,
2013-10-09 19:28:00,71.0,66.9,29.94,NNW,344,1.0,1.0,87,0.00,,,0.00,Wunderground v.1.12,2013-10-09 23:28:00,
2013-10-09 19:38:00,70.8,66.7,29.94,NNW,344,1.0,3.0,87,0.00,,,0.00,Wunderground v.1.12,2013-10-09 23:38:00,
2013-10-09 19:48:00,70.7,66.6,29.94,NNW,329,2.0,2.0,87,0.00,,,0.00,Wunderground v.1.12,2013-10-09 23:48:00,
2013-10-09 19:58:00,70.6,66.5,29.94,NNW,338,1.0,13.0,87,0.00,,,0.00,Wunderground v.1.12,2013-10-09 23:58:00,
2013-10-09 20:08:00,70.5,66.8,29.94,NNW,344,0.0,5.0,88,0.00,,,0.00,Wunderground v.1.12,2013-10-10 00:08:00,
2013-10-09 20:18:00,70.4,66.7,29.94,NNW,344,1.0,2.0,88,0.00,,,0.00,Wunderground v.1.12,2013-10-10 00:18:00,
2013-10-09 20:28:00,70.1,66.4,29.94,NE,34,1.0,1.0,88,0.00,,,0.00,Wunderground v.1.12,2013-10-10 00:28:00,
2013-10-09 20:38:00,70.1,66.4,29.94,North,0,1.0,6.0,88,0.00,,,0.00,Wunderground v.1.12,2013-10-10 00:38:00,
2013-10-09 20:48:00,69.3,65.9,29.94,NNW,341,0.0,0.0,89,0.00,,,0.00,Wunderground v.1.12,2013-10-10 00:48:00,
2013-10-09 20:58:00,68.8,65.7,29.94,NNW,332,0.0,0.0,90,0.00,,,0.00,Wunderground v.1.12,2013-10-10 00:58:00,
2013-10-09 21:00:00,68.7,65.6,29.94,NNW,338,0.0,3.0,90,0.00,,,0.00,Wunderground v.1.12,2013-10-10 01:00:00,
2013-10-09 21:08:00,68.6,65.5,29.94,West,267,0.0,0.0,90,0.00,,,0.00,Wunderground v.1.12,2013-10-10 01:08:00,
2013-10-09 21:18:00,68.3,65.3,29.95,NW,325,0.0,0.0,90,0.00,,,0.00,Wunderground v.1.12,2013-10-10 01:18:00,
2013-10-09 21:28:00,68.0,65.3,29.95,NW,323,0.0,0.0,91,0.00,,,0.00,Wunderground v.1.12,2013-10-10 01:28:00,
2013-10-09 21:38:00,68.0,65.3,29.95,N/A,-737280,0.0,0.0,91,0.00,,,0.00,Wunderground v.1.12,2013-10-10 01:38:00,
2013-10-09 21:48:00,68.0,65.6,29.95,WNW,284,0.0,0.0,92,0.00,,,0.00,Wunderground v.1.12,2013-10-10 01:48:00,
2013-10-09 21:58:00,68.0,65.6,29.95,WNW,288,0.0,0.0,92,0.00,,,0.00,Wunderground v.1.12,2013-10-10 01:58:00,
2013-10-09 22:08:00,68.0,65.6,29.95,WNW,293,0.0,3.0,92,0.00,,,0.00,Wunderground v.1.12,2013-10-10 02:08:00,
2013-10-09 22:18:00,67.6,65.2,29.95,WNW,288,0.0,0.0,92,0.00,,,0.00,Wunderground v.1.12,2013-10-10 02:18:00,
2013-10-09 22:28:00,67.5,65.1,29.95,WNW,288,0.0,0.0,92,0.00,,,0.00,Wunderground v.1.12,2013-10-10 02:28:00,
2013-10-09 22:38:00,67.5,65.1,29.95,WNW,293,0.0,1.0,92,0.00,,,0.00,Wunderground v.1.12,2013-10-10 02:38:00,
2013-10-09 22:48:00,67.2,65.1,29.95,WNW,288,0.0,0.0,93,0.00,,,0.00,Wunderground v.1.12,2013-10-10 02:48:00,
2013-10-09 22:58:00,67.2,65.1,29.95,WNW,293,0.0,3.0,93,0.00,,,0.00,Wunderground v.1.12,2013-10-10 02:58:00,
2013-10-09 23:08:00,66.9,65.1,29.95,WNW,288,0.0,0.0,94,0.00,,,0.00,Wunderground v.1.12,2013-10-10 03:08:00,
2013-10-09 23:18:00,66.8,65.0,29.96,WNW,288,0.0,0.0,94,0.00,,,0.00,Wunderground v.1.12,2013-10-10 03:18:00,
2013-10-09 23:20:00,66.8,65.0,29.96,N/A,-737280,0.0,0.0,94,0.00,,,0.00,Wunderground v.1.12,2013-10-10 03:20:00,
2013-10-09 23:28:00,66.7,64.9,29.96,WNW,288,0.0,0.0,94,0.00,,,0.00,Wunderground v.1.12,2013-10-10 03:28:00,
2013-10-09 23:38:00,66.5,64.7,29.95,WNW,288,0.0,0.0,94,0.00,,,0.00,Wunderground v.1.12,2013-10-10 03:38:00,
2013-10-09 23:48:00,66.4,64.9,29.95,WNW,288,0.0,0.0,95,0.00,,,0.00,Wunderground v.1.12,2013-10-10 03:48:00,
2013-10-09 23:58:00,66.1,64.6,29.95,WNW,288,0.0,0.0,95,0.00,,,0.00,Wunderground v.1.12,2013-10-10 03:58:00,